sensor_id;sensor_type;location;lat;lon;timestamp;P1;durP1;ratioP1;P2;durP2;ratioP2
16153;SDS011;8182;55.648;13.208;2023-05-07T00:02:27;5.70;;;3.30;;
16153;SDS011;8182;55.648;13.208;2023-05-07T00:04:54;6.70;;;3.40;;
16153;SDS011;8182;55.648;13.208;2023-05-07T00:07:21;8.67;;;3.53;;
16153;SDS011;8182;55.648;13.208;2023-05-07T00:09:51;6.20;;;3.67;;
16153;SDS011;8182;55.648;13.208;2023-05-07T00:12:18;6.23;;;3.13;;
16153;SDS011;8182;55.648;13.208;2023-05-07T00:14:45;7.37;;;4.00;;
16153;SDS011;8182;55.648;13.208;2023-05-07T00:17:18;8.37;;;4.30;;
16153;SDS011;8182;55.648;13.208;2023-05-07T00:19:46;6.57;;;3.80;;
16153;SDS011;8182;55.648;13.208;2023-05-07T00:22:13;9.27;;;4.00;;
16153;SDS011;8182;55.648;13.208;2023-05-07T00:24:42;5.53;;;3.37;;
16153;SDS011;8182;55.648;13.208;2023-05-07T00:27:10;5.50;;;3.50;;
16153;SDS011;8182;55.648;13.208;2023-05-07T00:29:36;6.67;;;3.50;;
16153;SDS011;8182;55.648;13.208;2023-05-07T00:32:04;5.03;;;3.27;;
16153;SDS011;8182;55.648;13.208;2023-05-07T00:34:31;7.97;;;4.20;;
16153;SDS011;8182;55.648;13.208;2023-05-07T00:37:00;5.97;;;4.03;;
16153;SDS011;8182;55.648;13.208;2023-05-07T00:39:27;7.13;;;3.70;;
16153;SDS011;8182;55.648;13.208;2023-05-07T00:41:54;8.77;;;4.23;;
16153;SDS011;8182;55.648;13.208;2023-05-07T00:44:22;7.17;;;3.60;;
16153;SDS011;8182;55.648;13.208;2023-05-07T00:46:48;6.47;;;4.20;;
16153;SDS011;8182;55.648;13.208;2023-05-07T00:49:15;9.03;;;3.80;;
16153;SDS011;8182;55.648;13.208;2023-05-07T00:51:44;11.13;;;4.20;;
16153;SDS011;8182;55.648;13.208;2023-05-07T00:54:13;8.17;;;3.73;;
16153;SDS011;8182;55.648;13.208;2023-05-07T00:56:40;8.30;;;3.47;;
16153;SDS011;8182;55.648;13.208;2023-05-07T00:59:07;8.13;;;3.97;;
16153;SDS011;8182;55.648;13.208;2023-05-07T01:01:34;6.73;;;3.30;;
16153;SDS011;8182;55.648;13.208;2023-05-07T01:04:01;7.37;;;3.80;;
16153;SDS011;8182;55.648;13.208;2023-05-07T01:06:29;5.17;;;3.87;;
16153;SDS011;8182;55.648;13.208;2023-05-07T01:08:58;4.37;;;2.80;;
16153;SDS011;8182;55.648;13.208;2023-05-07T01:11:27;6.70;;;3.63;;
16153;SDS011;8182;55.648;13.208;2023-05-07T01:13:54;6.40;;;3.20;;
16153;SDS011;8182;55.648;13.208;2023-05-07T01:16:22;9.47;;;3.60;;
16153;SDS011;8182;55.648;13.208;2023-05-07T01:18:49;5.53;;;3.07;;
16153;SDS011;8182;55.648;13.208;2023-05-07T01:21:16;10.23;;;3.63;;
16153;SDS011;8182;55.648;13.208;2023-05-07T01:23:45;6.03;;;3.40;;
16153;SDS011;8182;55.648;13.208;2023-05-07T01:26:13;7.73;;;3.50;;
16153;SDS011;8182;55.648;13.208;2023-05-07T01:28:41;8.33;;;2.97;;
16153;SDS011;8182;55.648;13.208;2023-05-07T01:31:09;8.33;;;3.87;;
16153;SDS011;8182;55.648;13.208;2023-05-07T01:33:46;5.47;;;3.40;;
16153;SDS011;8182;55.648;13.208;2023-05-07T01:36:16;5.23;;;2.90;;
16153;SDS011;8182;55.648;13.208;2023-05-07T01:38:46;8.40;;;2.83;;
16153;SDS011;8182;55.648;13.208;2023-05-07T01:41:13;5.27;;;3.40;;
16153;SDS011;8182;55.648;13.208;2023-05-07T01:43:43;11.63;;;3.50;;
16153;SDS011;8182;55.648;13.208;2023-05-07T01:46:13;6.57;;;3.57;;
16153;SDS011;8182;55.648;13.208;2023-05-07T01:48:45;6.30;;;3.67;;
16153;SDS011;8182;55.648;13.208;2023-05-07T01:51:12;6.37;;;3.17;;
16153;SDS011;8182;55.648;13.208;2023-05-07T01:53:39;4.77;;;2.87;;
16153;SDS011;8182;55.648;13.208;2023-05-07T01:56:09;7.47;;;3.63;;
16153;SDS011;8182;55.648;13.208;2023-05-07T01:58:36;5.13;;;3.60;;
16153;SDS011;8182;55.648;13.208;2023-05-07T02:01:03;6.90;;;3.37;;
16153;SDS011;8182;55.648;13.208;2023-05-07T02:03:30;6.47;;;3.10;;
16153;SDS011;8182;55.648;13.208;2023-05-07T02:05:57;6.63;;;3.60;;
16153;SDS011;8182;55.648;13.208;2023-05-07T02:08:24;7.17;;;3.17;;
16153;SDS011;8182;55.648;13.208;2023-05-07T02:10:51;5.10;;;3.47;;
16153;SDS011;8182;55.648;13.208;2023-05-07T02:13:20;9.30;;;3.37;;
16153;SDS011;8182;55.648;13.208;2023-05-07T02:15:47;6.47;;;3.43;;
16153;SDS011;8182;55.648;13.208;2023-05-07T02:18:16;6.60;;;3.20;;
16153;SDS011;8182;55.648;13.208;2023-05-07T02:20:43;5.40;;;3.57;;
16153;SDS011;8182;55.648;13.208;2023-05-07T02:23:10;5.30;;;3.80;;
16153;SDS011;8182;55.648;13.208;2023-05-07T02:25:37;6.90;;;3.27;;
16153;SDS011;8182;55.648;13.208;2023-05-07T02:28:04;5.63;;;3.50;;
16153;SDS011;8182;55.648;13.208;2023-05-07T02:30:33;8.27;;;4.27;;
16153;SDS011;8182;55.648;13.208;2023-05-07T02:32:59;7.63;;;3.30;;
16153;SDS011;8182;55.648;13.208;2023-05-07T02:35:26;5.83;;;3.53;;
16153;SDS011;8182;55.648;13.208;2023-05-07T02:37:53;5.17;;;3.37;;
16153;SDS011;8182;55.648;13.208;2023-05-07T02:40:20;4.60;;;2.90;;
16153;SDS011;8182;55.648;13.208;2023-05-07T02:42:48;6.03;;;3.13;;
16153;SDS011;8182;55.648;13.208;2023-05-07T02:45:14;5.93;;;3.30;;
16153;SDS011;8182;55.648;13.208;2023-05-07T02:47:43;6.53;;;3.27;;
16153;SDS011;8182;55.648;13.208;2023-05-07T02:50:13;5.47;;;3.20;;
16153;SDS011;8182;55.648;13.208;2023-05-07T02:52:41;6.63;;;3.07;;
16153;SDS011;8182;55.648;13.208;2023-05-07T02:55:08;11.03;;;3.90;;
16153;SDS011;8182;55.648;13.208;2023-05-07T02:57:35;6.37;;;3.23;;
16153;SDS011;8182;55.648;13.208;2023-05-07T03:00:09;6.90;;;3.60;;
16153;SDS011;8182;55.648;13.208;2023-05-07T03:02:41;4.90;;;3.70;;
16153;SDS011;8182;55.648;13.208;2023-05-07T03:05:09;6.63;;;3.10;;
16153;SDS011;8182;55.648;13.208;2023-05-07T03:07:37;5.10;;;3.37;;
16153;SDS011;8182;55.648;13.208;2023-05-07T03:10:04;7.17;;;3.20;;
16153;SDS011;8182;55.648;13.208;2023-05-07T03:12:31;5.37;;;3.57;;
16153;SDS011;8182;55.648;13.208;2023-05-07T03:14:59;4.53;;;3.20;;
16153;SDS011;8182;55.648;13.208;2023-05-07T03:17:25;5.43;;;3.60;;
16153;SDS011;8182;55.648;13.208;2023-05-07T03:19:54;8.40;;;3.63;;
16153;SDS011;8182;55.648;13.208;2023-05-07T03:22:21;7.10;;;3.47;;
16153;SDS011;8182;55.648;13.208;2023-05-07T03:24:48;7.90;;;3.60;;
16153;SDS011;8182;55.648;13.208;2023-05-07T03:27:15;7.00;;;3.20;;
16153;SDS011;8182;55.648;13.208;2023-05-07T03:29:42;6.60;;;3.60;;
16153;SDS011;8182;55.648;13.208;2023-05-07T03:32:09;9.03;;;3.50;;
16153;SDS011;8182;55.648;13.208;2023-05-07T03:34:36;7.80;;;3.70;;
16153;SDS011;8182;55.648;13.208;2023-05-07T03:37:05;7.80;;;3.37;;
16153;SDS011;8182;55.648;13.208;2023-05-07T03:39:32;5.63;;;3.33;;
16153;SDS011;8182;55.648;13.208;2023-05-07T03:41:59;6.83;;;3.50;;
16153;SDS011;8182;55.648;13.208;2023-05-07T03:44:27;7.00;;;3.50;;
16153;SDS011;8182;55.648;13.208;2023-05-07T03:46:54;7.17;;;3.03;;
16153;SDS011;8182;55.648;13.208;2023-05-07T03:49:21;5.27;;;3.00;;
16153;SDS011;8182;55.648;13.208;2023-05-07T03:51:48;6.23;;;3.10;;
16153;SDS011;8182;55.648;13.208;2023-05-07T03:54:17;5.63;;;3.10;;
16153;SDS011;8182;55.648;13.208;2023-05-07T03:56:44;5.43;;;3.60;;
16153;SDS011;8182;55.648;13.208;2023-05-07T03:59:11;7.13;;;2.87;;
16153;SDS011;8182;55.648;13.208;2023-05-07T04:01:38;5.30;;;3.27;;
16153;SDS011;8182;55.648;13.208;2023-05-07T04:04:05;5.27;;;2.77;;
16153;SDS011;8182;55.648;13.208;2023-05-07T04:06:35;5.30;;;3.10;;
16153;SDS011;8182;55.648;13.208;2023-05-07T04:09:02;4.77;;;2.90;;
16153;SDS011;8182;55.648;13.208;2023-05-07T04:11:31;4.60;;;2.80;;
16153;SDS011;8182;55.648;13.208;2023-05-07T04:13:58;4.60;;;3.10;;
16153;SDS011;8182;55.648;13.208;2023-05-07T04:16:25;3.97;;;2.80;;
16153;SDS011;8182;55.648;13.208;2023-05-07T04:18:52;3.27;;;2.70;;
16153;SDS011;8182;55.648;13.208;2023-05-07T04:21:20;5.90;;;2.83;;
16153;SDS011;8182;55.648;13.208;2023-05-07T04:23:48;4.63;;;2.70;;
16153;SDS011;8182;55.648;13.208;2023-05-07T04:26:15;5.47;;;3.27;;
16153;SDS011;8182;55.648;13.208;2023-05-07T04:28:44;5.80;;;3.60;;
16153;SDS011;8182;55.648;13.208;2023-05-07T04:31:11;2.57;;;2.00;;
16153;SDS011;8182;55.648;13.208;2023-05-07T04:33:38;4.50;;;3.00;;
16153;SDS011;8182;55.648;13.208;2023-05-07T04:36:05;6.27;;;3.43;;
16153;SDS011;8182;55.648;13.208;2023-05-07T04:38:32;3.77;;;2.87;;
16153;SDS011;8182;55.648;13.208;2023-05-07T04:41:02;6.00;;;3.60;;
16153;SDS011;8182;55.648;13.208;2023-05-07T04:43:30;7.13;;;3.27;;
16153;SDS011;8182;55.648;13.208;2023-05-07T04:45:58;4.13;;;2.90;;
16153;SDS011;8182;55.648;13.208;2023-05-07T04:48:31;3.87;;;2.40;;
16153;SDS011;8182;55.648;13.208;2023-05-07T04:50:58;6.17;;;3.23;;
16153;SDS011;8182;55.648;13.208;2023-05-07T04:53:25;5.50;;;3.27;;
16153;SDS011;8182;55.648;13.208;2023-05-07T04:55:54;4.63;;;3.27;;
16153;SDS011;8182;55.648;13.208;2023-05-07T04:58:30;4.93;;;3.23;;
16153;SDS011;8182;55.648;13.208;2023-05-07T05:00:56;3.97;;;2.30;;
16153;SDS011;8182;55.648;13.208;2023-05-07T05:03:25;8.37;;;2.83;;
16153;SDS011;8182;55.648;13.208;2023-05-07T05:05:52;4.90;;;2.30;;
16153;SDS011;8182;55.648;13.208;2023-05-07T05:08:19;6.13;;;3.07;;
16153;SDS011;8182;55.648;13.208;2023-05-07T05:10:46;7.30;;;3.20;;
16153;SDS011;8182;55.648;13.208;2023-05-07T05:13:14;7.67;;;3.27;;
16153;SDS011;8182;55.648;13.208;2023-05-07T05:15:42;6.67;;;3.53;;
16153;SDS011;8182;55.648;13.208;2023-05-07T05:18:10;7.93;;;3.50;;
16153;SDS011;8182;55.648;13.208;2023-05-07T05:20:46;3.83;;;3.20;;
16153;SDS011;8182;55.648;13.208;2023-05-07T05:23:18;5.60;;;2.77;;
16153;SDS011;8182;55.648;13.208;2023-05-07T05:25:45;3.80;;;2.53;;
16153;SDS011;8182;55.648;13.208;2023-05-07T05:28:15;4.40;;;2.93;;
16153;SDS011;8182;55.648;13.208;2023-05-07T05:30:42;5.70;;;3.33;;
16153;SDS011;8182;55.648;13.208;2023-05-07T05:33:10;4.20;;;2.40;;
16153;SDS011;8182;55.648;13.208;2023-05-07T05:35:37;8.50;;;3.13;;
16153;SDS011;8182;55.648;13.208;2023-05-07T05:38:04;5.43;;;2.70;;
16153;SDS011;8182;55.648;13.208;2023-05-07T05:40:31;5.90;;;3.10;;
16153;SDS011;8182;55.648;13.208;2023-05-07T05:42:59;4.03;;;2.60;;
16153;SDS011;8182;55.648;13.208;2023-05-07T05:45:26;5.60;;;2.70;;
16153;SDS011;8182;55.648;13.208;2023-05-07T05:47:53;7.40;;;3.10;;
16153;SDS011;8182;55.648;13.208;2023-05-07T05:50:24;6.93;;;3.33;;
16153;SDS011;8182;55.648;13.208;2023-05-07T05:52:51;3.10;;;2.57;;
16153;SDS011;8182;55.648;13.208;2023-05-07T05:55:18;5.57;;;2.60;;
16153;SDS011;8182;55.648;13.208;2023-05-07T05:57:45;4.40;;;2.33;;
16153;SDS011;8182;55.648;13.208;2023-05-07T06:00:13;7.27;;;3.07;;
16153;SDS011;8182;55.648;13.208;2023-05-07T06:02:43;7.63;;;3.43;;
16153;SDS011;8182;55.648;13.208;2023-05-07T06:05:11;6.10;;;2.47;;
16153;SDS011;8182;55.648;13.208;2023-05-07T06:07:42;6.87;;;3.17;;
16153;SDS011;8182;55.648;13.208;2023-05-07T06:10:10;6.10;;;2.90;;
16153;SDS011;8182;55.648;13.208;2023-05-07T06:12:41;8.67;;;2.77;;
16153;SDS011;8182;55.648;13.208;2023-05-07T06:15:12;5.07;;;2.80;;
16153;SDS011;8182;55.648;13.208;2023-05-07T06:17:39;5.83;;;3.13;;
16153;SDS011;8182;55.648;13.208;2023-05-07T06:20:07;4.97;;;3.17;;
16153;SDS011;8182;55.648;13.208;2023-05-07T06:22:35;6.83;;;3.00;;
16153;SDS011;8182;55.648;13.208;2023-05-07T06:25:03;5.40;;;3.00;;
16153;SDS011;8182;55.648;13.208;2023-05-07T06:27:31;4.97;;;2.73;;
16153;SDS011;8182;55.648;13.208;2023-05-07T06:29:58;5.03;;;3.10;;
16153;SDS011;8182;55.648;13.208;2023-05-07T06:32:25;5.10;;;3.10;;
16153;SDS011;8182;55.648;13.208;2023-05-07T06:34:55;3.73;;;2.67;;
16153;SDS011;8182;55.648;13.208;2023-05-07T06:37:22;7.73;;;3.10;;
16153;SDS011;8182;55.648;13.208;2023-05-07T06:39:49;4.73;;;2.67;;
16153;SDS011;8182;55.648;13.208;2023-05-07T06:42:18;4.40;;;2.87;;
16153;SDS011;8182;55.648;13.208;2023-05-07T06:44:45;6.40;;;3.27;;
16153;SDS011;8182;55.648;13.208;2023-05-07T06:47:12;6.53;;;2.90;;
16153;SDS011;8182;55.648;13.208;2023-05-07T06:49:45;3.97;;;2.97;;
16153;SDS011;8182;55.648;13.208;2023-05-07T06:52:12;6.13;;;3.00;;
16153;SDS011;8182;55.648;13.208;2023-05-07T06:54:39;5.10;;;2.80;;
16153;SDS011;8182;55.648;13.208;2023-05-07T06:57:07;4.90;;;3.30;;
16153;SDS011;8182;55.648;13.208;2023-05-07T06:59:35;5.33;;;3.13;;
16153;SDS011;8182;55.648;13.208;2023-05-07T07:02:05;4.53;;;3.37;;
16153;SDS011;8182;55.648;13.208;2023-05-07T07:04:40;8.77;;;3.10;;
16153;SDS011;8182;55.648;13.208;2023-05-07T07:07:08;7.43;;;2.90;;
16153;SDS011;8182;55.648;13.208;2023-05-07T07:09:35;4.30;;;2.37;;
16153;SDS011;8182;55.648;13.208;2023-05-07T07:12:02;7.00;;;2.80;;
16153;SDS011;8182;55.648;13.208;2023-05-07T07:14:29;3.80;;;2.67;;
16153;SDS011;8182;55.648;13.208;2023-05-07T07:16:57;4.13;;;2.63;;
16153;SDS011;8182;55.648;13.208;2023-05-07T07:19:25;6.47;;;3.07;;
16153;SDS011;8182;55.648;13.208;2023-05-07T07:21:52;7.17;;;2.70;;
16153;SDS011;8182;55.648;13.208;2023-05-07T07:24:19;3.63;;;2.43;;
16153;SDS011;8182;55.648;13.208;2023-05-07T07:26:46;6.00;;;2.23;;
16153;SDS011;8182;55.648;13.208;2023-05-07T07:29:14;4.83;;;2.60;;
16153;SDS011;8182;55.648;13.208;2023-05-07T07:31:41;4.60;;;2.80;;
16153;SDS011;8182;55.648;13.208;2023-05-07T07:34:12;8.27;;;3.10;;
16153;SDS011;8182;55.648;13.208;2023-05-07T07:36:38;4.30;;;2.67;;
16153;SDS011;8182;55.648;13.208;2023-05-07T07:39:05;6.13;;;2.97;;
16153;SDS011;8182;55.648;13.208;2023-05-07T07:41:33;4.07;;;2.80;;
16153;SDS011;8182;55.648;13.208;2023-05-07T07:44:00;7.33;;;2.33;;
16153;SDS011;8182;55.648;13.208;2023-05-07T07:46:28;4.57;;;2.60;;
16153;SDS011;8182;55.648;13.208;2023-05-07T07:48:55;3.37;;;2.70;;
16153;SDS011;8182;55.648;13.208;2023-05-07T07:51:25;7.70;;;2.60;;
16153;SDS011;8182;55.648;13.208;2023-05-07T07:53:52;4.73;;;2.30;;
16153;SDS011;8182;55.648;13.208;2023-05-07T07:56:20;4.53;;;2.53;;
16153;SDS011;8182;55.648;13.208;2023-05-07T07:58:47;2.80;;;2.20;;
16153;SDS011;8182;55.648;13.208;2023-05-07T08:01:14;5.00;;;2.30;;
16153;SDS011;8182;55.648;13.208;2023-05-07T08:03:41;2.90;;;2.60;;
16153;SDS011;8182;55.648;13.208;2023-05-07T08:06:09;3.43;;;2.40;;
16153;SDS011;8182;55.648;13.208;2023-05-07T08:08:37;2.27;;;1.87;;
16153;SDS011;8182;55.648;13.208;2023-05-07T08:11:04;5.03;;;2.63;;
16153;SDS011;8182;55.648;13.208;2023-05-07T08:13:37;6.37;;;2.83;;
16153;SDS011;8182;55.648;13.208;2023-05-07T08:16:04;3.97;;;2.60;;
16153;SDS011;8182;55.648;13.208;2023-05-07T08:18:31;3.73;;;2.80;;
16153;SDS011;8182;55.648;13.208;2023-05-07T08:20:58;6.23;;;2.80;;
16153;SDS011;8182;55.648;13.208;2023-05-07T08:23:25;3.17;;;2.70;;
16153;SDS011;8182;55.648;13.208;2023-05-07T08:25:54;6.17;;;3.20;;
16153;SDS011;8182;55.648;13.208;2023-05-07T08:28:21;3.33;;;3.00;;
16153;SDS011;8182;55.648;13.208;2023-05-07T08:30:49;3.40;;;2.70;;
16153;SDS011;8182;55.648;13.208;2023-05-07T08:33:16;3.70;;;2.70;;
16153;SDS011;8182;55.648;13.208;2023-05-07T08:35:43;4.13;;;2.50;;
16153;SDS011;8182;55.648;13.208;2023-05-07T08:38:10;4.00;;;3.00;;
16153;SDS011;8182;55.648;13.208;2023-05-07T08:40:38;3.17;;;2.50;;
16153;SDS011;8182;55.648;13.208;2023-05-07T08:43:07;4.60;;;2.70;;
16153;SDS011;8182;55.648;13.208;2023-05-07T08:45:34;4.00;;;2.70;;
16153;SDS011;8182;55.648;13.208;2023-05-07T08:48:05;4.70;;;2.40;;
16153;SDS011;8182;55.648;13.208;2023-05-07T08:50:36;6.70;;;3.00;;
16153;SDS011;8182;55.648;13.208;2023-05-07T08:53:04;3.60;;;3.00;;
16153;SDS011;8182;55.648;13.208;2023-05-07T08:55:31;4.07;;;2.67;;
16153;SDS011;8182;55.648;13.208;2023-05-07T08:57:59;3.50;;;2.23;;
16153;SDS011;8182;55.648;13.208;2023-05-07T09:00:27;3.97;;;2.60;;
16153;SDS011;8182;55.648;13.208;2023-05-07T09:02:55;2.80;;;2.30;;
16153;SDS011;8182;55.648;13.208;2023-05-07T09:05:22;4.40;;;2.67;;
16153;SDS011;8182;55.648;13.208;2023-05-07T09:07:52;8.20;;;2.80;;
16153;SDS011;8182;55.648;13.208;2023-05-07T09:10:20;3.77;;;2.73;;
16153;SDS011;8182;55.648;13.208;2023-05-07T09:12:47;7.37;;;2.77;;
16153;SDS011;8182;55.648;13.208;2023-05-07T09:15:14;5.10;;;2.93;;
16153;SDS011;8182;55.648;13.208;2023-05-07T09:17:43;3.77;;;2.57;;
16153;SDS011;8182;55.648;13.208;2023-05-07T09:20:10;3.67;;;2.33;;
16153;SDS011;8182;55.648;13.208;2023-05-07T09:22:37;4.73;;;2.80;;
16153;SDS011;8182;55.648;13.208;2023-05-07T09:25:05;4.00;;;2.50;;
16153;SDS011;8182;55.648;13.208;2023-05-07T09:27:33;4.47;;;2.90;;
16153;SDS011;8182;55.648;13.208;2023-05-07T09:30:02;5.90;;;2.97;;
16153;SDS011;8182;55.648;13.208;2023-05-07T09:32:30;5.07;;;3.20;;
16153;SDS011;8182;55.648;13.208;2023-05-07T09:35:02;4.37;;;3.13;;
16153;SDS011;8182;55.648;13.208;2023-05-07T09:37:30;3.80;;;2.90;;
16153;SDS011;8182;55.648;13.208;2023-05-07T09:39:57;5.10;;;3.00;;
16153;SDS011;8182;55.648;13.208;2023-05-07T09:42:24;5.67;;;2.70;;
16153;SDS011;8182;55.648;13.208;2023-05-07T09:44:52;4.93;;;2.70;;
16153;SDS011;8182;55.648;13.208;2023-05-07T09:47:20;6.13;;;2.70;;
16153;SDS011;8182;55.648;13.208;2023-05-07T09:50:03;8.17;;;2.60;;
16153;SDS011;8182;55.648;13.208;2023-05-07T09:52:33;3.33;;;2.53;;
16153;SDS011;8182;55.648;13.208;2023-05-07T09:55:01;4.13;;;2.87;;
16153;SDS011;8182;55.648;13.208;2023-05-07T09:57:31;4.33;;;3.17;;
16153;SDS011;8182;55.648;13.208;2023-05-07T09:59:59;5.73;;;2.80;;
16153;SDS011;8182;55.648;13.208;2023-05-07T10:02:29;4.50;;;2.97;;
16153;SDS011;8182;55.648;13.208;2023-05-07T10:04:57;4.30;;;2.43;;
16153;SDS011;8182;55.648;13.208;2023-05-07T10:07:27;4.23;;;2.80;;
16153;SDS011;8182;55.648;13.208;2023-05-07T10:09:55;4.27;;;2.70;;
16153;SDS011;8182;55.648;13.208;2023-05-07T10:12:23;4.17;;;3.00;;
16153;SDS011;8182;55.648;13.208;2023-05-07T10:14:53;3.40;;;2.50;;
16153;SDS011;8182;55.648;13.208;2023-05-07T10:17:25;6.53;;;2.80;;
16153;SDS011;8182;55.648;13.208;2023-05-07T10:19:53;3.50;;;2.70;;
16153;SDS011;8182;55.648;13.208;2023-05-07T10:22:20;3.47;;;2.57;;
16153;SDS011;8182;55.648;13.208;2023-05-07T10:24:50;4.60;;;2.57;;
16153;SDS011;8182;55.648;13.208;2023-05-07T10:27:20;2.67;;;2.00;;
16153;SDS011;8182;55.648;13.208;2023-05-07T10:29:50;3.17;;;2.50;;
16153;SDS011;8182;55.648;13.208;2023-05-07T10:32:30;5.10;;;2.50;;
16153;SDS011;8182;55.648;13.208;2023-05-07T10:35:04;4.43;;;2.60;;
16153;SDS011;8182;55.648;13.208;2023-05-07T10:37:40;2.80;;;2.37;;
16153;SDS011;8182;55.648;13.208;2023-05-07T10:40:10;4.20;;;2.50;;
16153;SDS011;8182;55.648;13.208;2023-05-07T10:42:38;6.63;;;2.50;;
16153;SDS011;8182;55.648;13.208;2023-05-07T10:45:19;4.63;;;2.67;;
16153;SDS011;8182;55.648;13.208;2023-05-07T10:48:05;5.53;;;2.70;;
16153;SDS011;8182;55.648;13.208;2023-05-07T10:50:33;2.53;;;2.20;;
16153;SDS011;8182;55.648;13.208;2023-05-07T10:56:23;6.23;;;2.70;;
16153;SDS011;8182;55.648;13.208;2023-05-07T10:58:50;4.73;;;2.37;;
16153;SDS011;8182;55.648;13.208;2023-05-07T11:01:19;4.57;;;2.43;;
16153;SDS011;8182;55.648;13.208;2023-05-07T11:04:17;3.70;;;2.77;;
16153;SDS011;8182;55.648;13.208;2023-05-07T11:10:05;7.43;;;3.20;;
16153;SDS011;8182;55.648;13.208;2023-05-07T11:12:52;2.83;;;2.57;;
16153;SDS011;8182;55.648;13.208;2023-05-07T11:18:13;3.30;;;2.33;;
16153;SDS011;8182;55.648;13.208;2023-05-07T11:20:54;4.73;;;2.80;;
16153;SDS011;8182;55.648;13.208;2023-05-07T11:26:22;3.40;;;2.60;;
16153;SDS011;8182;55.648;13.208;2023-05-07T11:28:50;5.57;;;2.73;;
16153;SDS011;8182;55.648;13.208;2023-05-07T11:31:22;3.87;;;2.40;;
16153;SDS011;8182;55.648;13.208;2023-05-07T11:33:52;6.27;;;2.90;;
16153;SDS011;8182;55.648;13.208;2023-05-07T11:36:21;3.90;;;2.53;;
16153;SDS011;8182;55.648;13.208;2023-05-07T11:38:49;5.70;;;2.70;;
16153;SDS011;8182;55.648;13.208;2023-05-07T11:41:16;4.23;;;2.80;;
16153;SDS011;8182;55.648;13.208;2023-05-07T11:43:55;5.30;;;2.80;;
16153;SDS011;8182;55.648;13.208;2023-05-07T11:46:22;5.77;;;3.10;;
16153;SDS011;8182;55.648;13.208;2023-05-07T11:48:55;4.07;;;3.13;;
16153;SDS011;8182;55.648;13.208;2023-05-07T11:51:22;5.00;;;2.63;;
16153;SDS011;8182;55.648;13.208;2023-05-07T11:53:51;7.97;;;2.87;;
16153;SDS011;8182;55.648;13.208;2023-05-07T11:56:18;4.57;;;2.80;;
16153;SDS011;8182;55.648;13.208;2023-05-07T11:58:46;5.07;;;3.07;;
16153;SDS011;8182;55.648;13.208;2023-05-07T12:01:14;6.80;;;3.10;;
16153;SDS011;8182;55.648;13.208;2023-05-07T12:03:43;4.40;;;3.00;;
16153;SDS011;8182;55.648;13.208;2023-05-07T12:06:13;3.93;;;2.80;;
16153;SDS011;8182;55.648;13.208;2023-05-07T12:08:47;3.80;;;2.47;;
16153;SDS011;8182;55.648;13.208;2023-05-07T12:11:15;6.23;;;3.30;;
16153;SDS011;8182;55.648;13.208;2023-05-07T12:13:55;4.63;;;3.30;;
16153;SDS011;8182;55.648;13.208;2023-05-07T12:16:22;3.60;;;3.30;;
16153;SDS011;8182;55.648;13.208;2023-05-07T12:18:50;7.53;;;3.77;;
16153;SDS011;8182;55.648;13.208;2023-05-07T12:21:21;6.23;;;3.33;;
16153;SDS011;8182;55.648;13.208;2023-05-07T12:23:49;5.27;;;3.40;;
16153;SDS011;8182;55.648;13.208;2023-05-07T12:26:19;4.97;;;3.60;;
16153;SDS011;8182;55.648;13.208;2023-05-07T12:28:47;3.23;;;2.50;;
16153;SDS011;8182;55.648;13.208;2023-05-07T12:31:14;3.73;;;2.23;;
16153;SDS011;8182;55.648;13.208;2023-05-07T12:33:41;5.00;;;3.27;;
16153;SDS011;8182;55.648;13.208;2023-05-07T12:36:11;5.07;;;3.30;;
16153;SDS011;8182;55.648;13.208;2023-05-07T12:38:41;5.27;;;3.37;;
16153;SDS011;8182;55.648;13.208;2023-05-07T12:41:08;7.97;;;3.40;;
16153;SDS011;8182;55.648;13.208;2023-05-07T12:43:37;5.13;;;3.40;;
16153;SDS011;8182;55.648;13.208;2023-05-07T12:46:05;5.50;;;3.40;;
16153;SDS011;8182;55.648;13.208;2023-05-07T12:48:33;5.53;;;3.60;;
16153;SDS011;8182;55.648;13.208;2023-05-07T12:51:06;7.00;;;3.30;;
16153;SDS011;8182;55.648;13.208;2023-05-07T12:53:39;4.87;;;3.67;;
16153;SDS011;8182;55.648;13.208;2023-05-07T12:56:08;6.50;;;3.57;;
16153;SDS011;8182;55.648;13.208;2023-05-07T12:58:36;5.30;;;3.33;;
16153;SDS011;8182;55.648;13.208;2023-05-07T13:01:04;5.70;;;3.70;;
16153;SDS011;8182;55.648;13.208;2023-05-07T13:03:33;5.30;;;3.13;;
16153;SDS011;8182;55.648;13.208;2023-05-07T13:06:01;6.23;;;3.40;;
16153;SDS011;8182;55.648;13.208;2023-05-07T13:08:29;4.07;;;3.67;;
16153;SDS011;8182;55.648;13.208;2023-05-07T13:10:59;4.07;;;3.30;;
16153;SDS011;8182;55.648;13.208;2023-05-07T13:13:28;4.10;;;3.70;;
16153;SDS011;8182;55.648;13.208;2023-05-07T13:15:55;5.53;;;3.17;;
16153;SDS011;8182;55.648;13.208;2023-05-07T13:18:24;6.93;;;3.43;;
16153;SDS011;8182;55.648;13.208;2023-05-07T13:20:51;2.93;;;2.53;;
16153;SDS011;8182;55.648;13.208;2023-05-07T13:23:19;5.43;;;3.27;;
16153;SDS011;8182;55.648;13.208;2023-05-07T13:25:48;6.73;;;3.53;;
16153;SDS011;8182;55.648;13.208;2023-05-07T13:28:17;4.00;;;3.30;;
16153;SDS011;8182;55.648;13.208;2023-05-07T13:30:46;6.33;;;3.70;;
16153;SDS011;8182;55.648;13.208;2023-05-07T13:33:14;6.50;;;3.57;;
16153;SDS011;8182;55.648;13.208;2023-05-07T13:35:41;5.03;;;3.47;;
16153;SDS011;8182;55.648;13.208;2023-05-07T13:38:08;5.70;;;3.20;;
16153;SDS011;8182;55.648;13.208;2023-05-07T13:40:35;4.17;;;2.93;;
16153;SDS011;8182;55.648;13.208;2023-05-07T13:43:02;5.80;;;3.50;;
16153;SDS011;8182;55.648;13.208;2023-05-07T13:45:31;5.17;;;3.57;;
16153;SDS011;8182;55.648;13.208;2023-05-07T13:47:58;3.60;;;3.30;;
16153;SDS011;8182;55.648;13.208;2023-05-07T13:50:25;8.40;;;3.67;;
16153;SDS011;8182;55.648;13.208;2023-05-07T13:52:54;7.33;;;4.00;;
16153;SDS011;8182;55.648;13.208;2023-05-07T13:55:22;5.13;;;4.10;;
16153;SDS011;8182;55.648;13.208;2023-05-07T13:57:54;6.17;;;3.97;;
16153;SDS011;8182;55.648;13.208;2023-05-07T14:00:22;5.80;;;3.87;;
16153;SDS011;8182;55.648;13.208;2023-05-07T14:02:51;3.97;;;3.50;;
16153;SDS011;8182;55.648;13.208;2023-05-07T14:05:18;4.50;;;3.30;;
16153;SDS011;8182;55.648;13.208;2023-05-07T14:07:45;4.30;;;3.30;;
16153;SDS011;8182;55.648;13.208;2023-05-07T14:10:14;5.17;;;4.07;;
16153;SDS011;8182;55.648;13.208;2023-05-07T14:12:41;3.57;;;3.13;;
16153;SDS011;8182;55.648;13.208;2023-05-07T14:15:09;4.17;;;3.53;;
16153;SDS011;8182;55.648;13.208;2023-05-07T14:17:39;8.03;;;3.77;;
16153;SDS011;8182;55.648;13.208;2023-05-07T14:20:08;6.43;;;3.70;;
16153;SDS011;8182;55.648;13.208;2023-05-07T14:22:35;3.80;;;3.40;;
16153;SDS011;8182;55.648;13.208;2023-05-07T14:25:06;6.37;;;4.07;;
16153;SDS011;8182;55.648;13.208;2023-05-07T14:27:34;6.13;;;3.77;;
16153;SDS011;8182;55.648;13.208;2023-05-07T14:30:01;9.87;;;3.90;;
16153;SDS011;8182;55.648;13.208;2023-05-07T14:32:28;5.43;;;4.13;;
16153;SDS011;8182;55.648;13.208;2023-05-07T14:34:55;3.83;;;3.13;;
16153;SDS011;8182;55.648;13.208;2023-05-07T14:37:24;3.93;;;3.43;;
16153;SDS011;8182;55.648;13.208;2023-05-07T14:39:54;5.87;;;3.77;;
16153;SDS011;8182;55.648;13.208;2023-05-07T14:42:21;5.23;;;4.07;;
16153;SDS011;8182;55.648;13.208;2023-05-07T14:44:48;6.97;;;4.00;;
16153;SDS011;8182;55.648;13.208;2023-05-07T14:47:24;5.53;;;3.40;;
16153;SDS011;8182;55.648;13.208;2023-05-07T14:49:51;4.07;;;3.60;;
16153;SDS011;8182;55.648;13.208;2023-05-07T14:52:19;4.73;;;3.70;;
16153;SDS011;8182;55.648;13.208;2023-05-07T14:54:48;7.07;;;3.37;;
16153;SDS011;8182;55.648;13.208;2023-05-07T14:57:15;5.13;;;3.23;;
16153;SDS011;8182;55.648;13.208;2023-05-07T14:59:43;6.13;;;3.70;;
16153;SDS011;8182;55.648;13.208;2023-05-07T15:03:52;5.63;;;3.60;;
16153;SDS011;8182;55.648;13.208;2023-05-07T15:06:22;5.23;;;3.60;;
16153;SDS011;8182;55.648;13.208;2023-05-07T15:08:59;4.37;;;3.70;;
16153;SDS011;8182;55.648;13.208;2023-05-07T15:11:28;3.43;;;2.80;;